Dane County Regional Truax Field
KMSN : now visible

Airfield :











YOU CAN JOIN US ON...

 
LOGIN :

Register | Disclaimer

   EN    FR    IT 

 









Legend :    VFR   Marginal VFR   IFR   Intensive IFR   Very Intensive IFR
Visi :
Ceiling :
>= 8 km
>= 3000ft
5 to 8 km
1000 to 3000 ft
1500m to 5 km
500 to 1000 ft
800 to 1500m
200 to 500 ft
< 800m
< 200 ft
Symbols :   Thunderstorms  Fog  Heavy snow  Heavy precipitations  Wind > 20 kt






- Airport Elevation : 887 ft
- IATA code : MSN


KMSN - Dane County Regional Truax Field

CURRENT METAR :
  • 250453Z AUTO 03007KT 10SM OVC110 00/M05 A3027 RMK AO2 SLP259 T00001050

EXPIRED METARs :
  • 250353Z 01007KT 10SM OVC110 00/M05 A3027 RMK AO2 SLP258 LAST T00001050
  • 250253Z 01011KT 10SM OVC090 01/M05 A3027 RMK AO2 SLP259 T00061050 53009

TAF KMSN
Valid from the 25 at 06:00 until the 26 at 06:00 UTC


250520Z 2506/2606 02007KT P6SM OVC080
FM251500 02008KT P6SM BKN040
FM252000 01008KT P6SM VCSH OVC024
FM260000 36006KT P6SM OVC013
FM260300 01007KT P6SM -SHSN OVC009
KZAU FIR / North America



MET'MAP, your aeronautical weather chart ! - Copyright ORBIFLY December 2007 - Disclaimer

ORBIFLY MET'MAP TEAM :

Programming & Development : Alexandra Zaïnal
Concept & original design : Baudouin d'Aumeries
Assistance for programming : Marc-Olivier Méhu
Technical & hardware support : Manuel Goepfert

Contact : metmap@orbifly.com




SOURCES & CREDITS :

   NOAA       Earth
Advisory